Wetterdaten: Woche 14.02.11 - 20.02.11 (KW7)
Datum Zeit Temp. Innen Temp. Aussen UV X Diff Temp. Feuchte Inne Feuchte Auss Sonnenschein Luftdruck Regen ab 0,1 Wind Sonnenschein T Regendauer Windben
14.02.2011 00:00 14,3 C 6,7 C 0,0 UV-I 0,0 C 56 % 85 % 0 % 1006,8 hPa 0,0 l/m 11,7 km/h (2 Bft) 0,00 h 0,00 h 14,3 km/h (3 Bft)
14.02.2011 01:00 14,2 C 6,3 C 0,0 UV-I 0,0 C 56 % 85 % 0 % 1006,8 hPa 0,0 l/m 10,7 km/h (2 Bft) 0,00 h 0,00 h 11,6 km/h (2 Bft)
14.02.2011 02:00 14,1 C 6,2 C 0,0 UV-I 0,0 C 56 % 86 % 0 % 1006,2 hPa 0,0 l/m 12,1 km/h (2 Bft) 0,00 h 0,00 h 13,6 km/h (3 Bft)
14.02.2011 03:00 14,0 C 5,7 C 0,0 UV-I 0,0 C 56 % 87 % 0 % 1005,8 hPa 0,0 l/m 11,8 km/h (2 Bft) 0,00 h 0,00 h 13,7 km/h (3 Bft)
14.02.2011 04:00 13,9 C 5,4 C 0,0 UV-I 0,0 C 55 % 88 % 0 % 1005,7 hPa 0,0 l/m 11,7 km/h (2 Bft) 0,00 h 0,00 h 14,1 km/h (3 Bft)
14.02.2011 05:00 13,8 C 5,1 C 0,0 UV-I 0,0 C 56 % 89 % 0 % 1005,4 hPa 0,0 l/m 10,4 km/h (2 Bft) 0,00 h 0,00 h 10,9 km/h (2 Bft)
14.02.2011 06:00 13,7 C 5,0 C 0,0 UV-I 0,0 C 55 % 89 % 0 % 1005,3 hPa 0,0 l/m 11,2 km/h (2 Bft) 0,00 h 0,00 h 13,5 km/h (3 Bft)
14.02.2011 07:00 13,6 C 4,8 C 0,0 UV-I 0,0 C 55 % 89 % 0 % 1005,3 hPa 0,0 l/m 12,0 km/h (2 Bft) 0,00 h 0,00 h 12,3 km/h (3 Bft)
14.02.2011 08:00 13,6 C 4,7 C 0,0 UV-I 0,0 C 55 % 90 % 0 % 1005,4 hPa 0,0 l/m 12,9 km/h (3 Bft) 0,00 h 0,00 h 14,1 km/h (3 Bft)
14.02.2011 09:00 13,6 C 5,5 C 0,0 UV-I 0,4 C 55 % 89 % 12 % 1005,6 hPa 0,0 l/m 14,1 km/h (3 Bft) 0,00 h 0,00 h 15,4 km/h (3 Bft)
14.02.2011 10:00 13,8 C 6,6 C 0,0 UV-I 1,2 C 55 % 88 % 35 % 1006,0 hPa 0,0 l/m 12,6 km/h (3 Bft) 0,10 h 0,00 h 13,4 km/h (3 Bft)
14.02.2011 11:00 14,1 C 8,2 C 0,0 UV-I 3,4 C 56 % 84 % 91 % 1006,2 hPa 0,0 l/m 12,1 km/h (2 Bft) 0,80 h 0,00 h 13,3 km/h (3 Bft)
14.02.2011 12:00 14,4 C 8,5 C 0,0 UV-I 0,6 C 55 % 82 % 16 % 1006,4 hPa 0,0 l/m 9,5 km/h (2 Bft) 0,00 h 0,00 h 9,6 km/h (2 Bft)
14.02.2011 13:00 14,5 C 8,4 C 0,0 UV-I 0,1 C 55 % 83 % 4 % 1006,1 hPa 0,0 l/m 8,2 km/h (2 Bft) 0,00 h 0,00 h 10,1 km/h (2 Bft)
14.02.2011 14:00 14,4 C 8,2 C 0,0 UV-I 0,0 C 56 % 84 % 0 % 1006,0 hPa 0,0 l/m 5,2 km/h (1 Bft) 0,00 h 0,00 h 5,2 km/h (1 Bft)
14.02.2011 15:00 14,3 C 8,1 C 0,0 UV-I 0,0 C 56 % 85 % 0 % 1005,6 hPa 0,1 l/m 3,4 km/h (1 Bft) 0,00 h 0,00 h 3,9 km/h (1 Bft)
14.02.2011 16:00 14,3 C 7,9 C 0,0 UV-I 0,0 C 57 % 86 % 0 % 1005,5 hPa 0,1 l/m 0,8 km/h (0 Bft) 0,00 h 0,00 h 0,4 km/h (0 Bft)
14.02.2011 17:00 14,4 C 7,5 C 0,0 UV-I 0,0 C 57 % 88 % 0 % 1005,3 hPa 0,8 l/m 0,0 km/h (0 Bft) 0,00 h 0,00 h 0,0 km/h (0 Bft)
14.02.2011 18:00 14,4 C 7,2 C 0,0 UV-I 0,0 C 58 % 90 % 0 % 1005,2 hPa 0,7 l/m 0,0 km/h (0 Bft) 0,00 h 0,00 h 0,0 km/h (0 Bft)
14.02.2011 19:00 14,3 C 7,1 C 0,0 UV-I 0,0 C 59 % 91 % 0 % 1005,2 hPa 0,5 l/m 0,0 km/h (0 Bft) 0,00 h 0,00 h 0,0 km/h (0 Bft)
14.02.2011 20:00 14,3 C 6,9 C 0,0 UV-I 0,0 C 59 % 92 % 0 % 1004,8 hPa 0,4 l/m 0,0 km/h (0 Bft) 0,00 h 0,00 h 0,0 km/h (0 Bft)
14.02.2011 21:00 14,3 C 6,8 C 0,0 UV-I 0,0 C 60 % 92 % 0 % 1004,6 hPa 1,1 l/m 0,5 km/h (0 Bft) 0,00 h 0,00 h 0,9 km/h (0 Bft)
14.02.2011 22:00 14,2 C 6,4 C 0,0 UV-I 0,0 C 60 % 93 % 0 % 1004,7 hPa 0,8 l/m 1,1 km/h (1 Bft) 0,00 h 0,00 h 1,1 km/h (1 Bft)
14.02.2011 23:00 14,1 C 6,0 C 0,0 UV-I 0,0 C 59 % 93 % 0 % 1004,2 hPa 1,2 l/m 1,0 km/h (0 Bft) 0,00 h 0,00 h 1,1 km/h (1 Bft)
15.02.2011 00:00 13,9 C 5,7 C 0,0 UV-I 0,0 C 59 % 93 % 0 % 1003,9 hPa 0,7 l/m 0,5 km/h (0 Bft) 0,00 h 0,00 h 0,6 km/h (0 Bft)
15.02.2011 01:00 13,9 C 5,5 C 0,0 UV-I 0,0 C 59 % 93 % 0 % 1003,8 hPa 0,7 l/m 0,2 km/h (0 Bft) 0,00 h 0,00 h 0,4 km/h (0 Bft)
15.02.2011 02:00 13,9 C 5,3 C 0,0 UV-I 0,0 C 59 % 93 % 0 % 1003,3 hPa 0,1 l/m 0,1 km/h (0 Bft) 0,00 h 0,00 h 0,3 km/h (0 Bft)
15.02.2011 03:00 14,0 C 5,1 C 0,0 UV-I 0,0 C 59 % 93 % 0 % 1002,7 hPa 0,1 l/m 0,0 km/h (0 Bft) 0,00 h 0,00 h 0,0 km/h (0 Bft)
15.02.2011 04:00 13,9 C 4,6 C 0,0 UV-I 0,0 C 59 % 93 % 0 % 1002,4 hPa 0,0 l/m 0,0 km/h (0 Bft) 0,00 h 0,00 h 0,1 km/h (0 Bft)
15.02.2011 05:00 13,7 C 4,0 C 0,0 UV-I 0,0 C 58 % 93 % 0 % 1002,2 hPa 0,0 l/m 0,2 km/h (0 Bft) 0,00 h 0,00 h 0,5 km/h (0 Bft)
15.02.2011 06:00 13,6 C 3,5 C 0,0 UV-I 0,0 C 58 % 94 % 0 % 1002,0 hPa 0,0 l/m 1,7 km/h (1 Bft) 0,00 h 0,00 h 2,4 km/h (1 Bft)
15.02.2011 07:00 13,4 C 3,1 C 0,0 UV-I 0,0 C 57 % 93 % 0 % 1001,6 hPa 0,0 l/m 1,4 km/h (1 Bft) 0,00 h 0,00 h 2,1 km/h (1 Bft)
15.02.2011 08:00 13,2 C 2,9 C 0,0 UV-I 0,0 C 57 % 94 % 0 % 1001,4 hPa 0,0 l/m 1,8 km/h (1 Bft) 0,00 h 0,00 h 3,2 km/h (1 Bft)
15.02.2011 09:00 13,3 C 3,2 C 0,0 UV-I 0,3 C 57 % 94 % 8 % 1001,2 hPa 0,0 l/m 3,7 km/h (1 Bft) 0,00 h 0,00 h 4,4 km/h (1 Bft)
15.02.2011 10:00 13,4 C 4,2 C 0,0 UV-I 2,0 C 56 % 94 % 56 % 1001,1 hPa 0,0 l/m 4,9 km/h (1 Bft) 0,03 h 0,00 h 6,3 km/h (2 Bft)
15.02.2011 11:00 13,8 C 5,4 C 0,0 UV-I 2,3 C 56 % 94 % 60 % 1000,7 hPa 0,0 l/m 3,4 km/h (1 Bft) 0,30 h 0,00 h 4,4 km/h (1 Bft)
15.02.2011 12:00 14,2 C 6,2 C 0,0 UV-I 0,6 C 56 % 92 % 16 % 1000,0 hPa 0,1 l/m 6,9 km/h (2 Bft) 0,00 h 0,00 h 8,6 km/h (2 Bft)
15.02.2011 13:00 14,5 C 7,2 C 0,0 UV-I 1,8 C 56 % 90 % 52 % 999,4 hPa 0,0 l/m 8,7 km/h (2 Bft) 0,00 h 0,00 h 8,9 km/h (2 Bft)
15.02.2011 14:00 15,0 C 8,3 C 0,0 UV-I 1,5 C 54 % 86 % 43 % 999,0 hPa 0,0 l/m 8,9 km/h (2 Bft) 0,00 h 0,00 h 10,4 km/h (2 Bft)
15.02.2011 15:00 15,1 C 8,5 C 0,0 UV-I 0,2 C 53 % 82 % 5 % 998,4 hPa 0,0 l/m 5,4 km/h (1 Bft) 0,00 h 0,00 h 5,9 km/h (2 Bft)
15.02.2011 16:00 14,9 C 8,0 C 0,0 UV-I 0,0 C 54 % 83 % 0 % 997,4 hPa 0,0 l/m 5,7 km/h (1 Bft) 0,00 h 0,00 h 6,5 km/h (2 Bft)
15.02.2011 17:00 14,6 C 7,3 C 0,0 UV-I 0,0 C 55 % 85 % 0 % 996,9 hPa 0,1 l/m 3,6 km/h (1 Bft) 0,00 h 0,00 h 4,4 km/h (1 Bft)
15.02.2011 18:00 14,3 C 6,7 C 0,0 UV-I 0,0 C 56 % 89 % 0 % 996,9 hPa 0,0 l/m 8,2 km/h (2 Bft) 0,00 h 0,00 h 12,0 km/h (2 Bft)
15.02.2011 19:00 14,0 C 6,0 C 0,0 UV-I 0,0 C 57 % 90 % 0 % 997,2 hPa 0,0 l/m 9,7 km/h (2 Bft) 0,00 h 0,00 h 10,0 km/h (2 Bft)
15.02.2011 20:00 13,8 C 5,7 C 0,0 UV-I 0,0 C 57 % 90 % 0 % 997,0 hPa 0,0 l/m 9,3 km/h (2 Bft) 0,00 h 0,00 h 9,4 km/h (2 Bft)
15.02.2011 21:00 13,7 C 5,6 C 0,0 UV-I 0,0 C 57 % 91 % 0 % 997,1 hPa 0,0 l/m 10,4 km/h (2 Bft) 0,00 h 0,00 h 11,0 km/h (2 Bft)
15.02.2011 22:00 13,6 C 5,3 C 0,0 UV-I 0,0 C 57 % 91 % 0 % 996,7 hPa 0,0 l/m 8,3 km/h (2 Bft) 0,00 h 0,00 h 8,4 km/h (2 Bft)
15.02.2011 23:00 13,5 C 5,1 C 0,0 UV-I 0,0 C 57 % 91 % 0 % 996,8 hPa 0,0 l/m 8,8 km/h (2 Bft) 0,00 h 0,00 h 10,2 km/h (2 Bft)
16.02.2011 00:00 13,4 C 5,4 C 0,0 UV-I 0,0 C 57 % 91 % 0 % 997,2 hPa 0,0 l/m 12,2 km/h (2 Bft) 0,00 h 0,00 h 13,8 km/h (3 Bft)
16.02.2011 01:00 13,3 C 5,5 C 0,0 UV-I 0,0 C 57 % 91 % 0 % 996,9 hPa 0,0 l/m 11,0 km/h (2 Bft) 0,00 h 0,00 h 11,6 km/h (2 Bft)
16.02.2011 02:00 13,3 C 5,6 C 0,0 UV-I 0,0 C 57 % 91 % 0 % 996,9 hPa 0,0 l/m 9,4 km/h (2 Bft) 0,00 h 0,00 h 10,1 km/h (2 Bft)
16.02.2011 03:00 13,5 C 5,6 C 0,0 UV-I 0,0 C 57 % 90 % 0 % 997,3 hPa 0,0 l/m 7,1 km/h (2 Bft) 0,00 h 0,00 h 7,4 km/h (2 Bft)
16.02.2011 04:00 13,6 C 5,8 C 0,0 UV-I 0,0 C 57 % 90 % 0 % 997,3 hPa 0,0 l/m 3,8 km/h (1 Bft) 0,00 h 0,00 h 4,5 km/h (1 Bft)
16.02.2011 05:00 13,6 C 5,6 C 0,0 UV-I 0,0 C 57 % 90 % 0 % 997,6 hPa 0,0 l/m 2,4 km/h (1 Bft) 0,00 h 0,00 h 3,1 km/h (1 Bft)
16.02.2011 06:00 13,6 C 5,3 C 0,0 UV-I 0,0 C 57 % 90 % 0 % 997,9 hPa 0,0 l/m 2,5 km/h (1 Bft) 0,00 h 0,00 h 2,9 km/h (1 Bft)
16.02.2011 07:00 13,4 C 4,4 C 0,0 UV-I 0,0 C 56 % 91 % 0 % 998,2 hPa 0,0 l/m 1,2 km/h (1 Bft) 0,00 h 0,00 h 1,7 km/h (1 Bft)
16.02.2011 08:00 13,3 C 3,7 C 0,0 UV-I 0,0 C 56 % 91 % 0 % 998,6 hPa 0,0 l/m 1,4 km/h (1 Bft) 0,00 h 0,00 h 1,6 km/h (1 Bft)
16.02.2011 09:00 13,2 C 4,4 C 0,0 UV-I 2,5 C 56 % 92 % 62 % 999,1 hPa 0,0 l/m 4,7 km/h (1 Bft) 0,60 h 0,00 h 6,6 km/h (2 Bft)
16.02.2011 10:00 13,3 C 6,8 C 0,0 UV-I 5,4 C 57 % 91 % 100 % 999,7 hPa 0,0 l/m 8,6 km/h (2 Bft) 1,00 h 0,00 h 8,9 km/h (2 Bft)
16.02.2011 11:00 13,6 C 8,9 C 0,0 UV-I 6,2 C 57 % 85 % 100 % 1000,3 hPa 0,0 l/m 7,8 km/h (2 Bft) 1,00 h 0,00 h 9,6 km/h (2 Bft)
16.02.2011 12:00 14,1 C 10,4 C 0,0 UV-I 6,0 C 56 % 78 % 100 % 1000,1 hPa 0,0 l/m 5,9 km/h (2 Bft) 1,00 h 0,00 h 6,4 km/h (2 Bft)
16.02.2011 13:00 15,3 C 11,7 C 0,0 UV-I 6,7 C 54 % 69 % 100 % 1001,5 hPa 0,0 l/m 4,9 km/h (1 Bft) 1,00 h 0,00 h 6,0 km/h (2 Bft)
16.02.2011 14:00 17,0 C 12,6 C 0,0 UV-I 5,4 C 49 % 63 % 100 % 1002,1 hPa 0,0 l/m 4,7 km/h (1 Bft) 1,00 h 0,00 h 5,9 km/h (2 Bft)
16.02.2011 15:00 18,0 C 12,8 C 0,0 UV-I 4,3 C 46 % 62 % 89 % 1002,3 hPa 0,0 l/m 3,9 km/h (1 Bft) 0,83 h 0,00 h 4,2 km/h (1 Bft)
16.02.2011 16:00 17,7 C 10,5 C 0,0 UV-I 0,0 C 47 % 69 % 0 % 1000,9 hPa 0,0 l/m 3,1 km/h (1 Bft) 0,00 h 0,00 h 3,2 km/h (1 Bft)
16.02.2011 17:00 16,7 C 9,3 C 0,0 UV-I 0,0 C 49 % 75 % 0 % 1000,2 hPa 0,0 l/m 1,1 km/h (0 Bft) 0,00 h 0,00 h 1,1 km/h (1 Bft)
16.02.2011 18:00 15,7 C 7,8 C 0,0 UV-I 0,0 C 51 % 79 % 0 % 1000,0 hPa 0,0 l/m 0,2 km/h (0 Bft) 0,00 h 0,00 h 0,4 km/h (0 Bft)
16.02.2011 19:00 15,0 C 6,5 C 0,0 UV-I 0,0 C 53 % 84 % 0 % 1000,0 hPa 0,0 l/m 0,0 km/h (0 Bft) 0,00 h 0,00 h 0,0 km/h (0 Bft)
16.02.2011 20:00 14,7 C 6,4 C 0,0 UV-I 0,0 C 54 % 86 % 0 % 1000,2 hPa 0,0 l/m 0,0 km/h (0 Bft) 0,00 h 0,00 h 0,0 km/h (0 Bft)
16.02.2011 21:00 14,6 C 6,9 C 0,0 UV-I 0,0 C 55 % 87 % 0 % 1000,2 hPa 0,0 l/m 1,1 km/h (1 Bft) 0,00 h 0,00 h 2,2 km/h (1 Bft)
16.02.2011 22:00 14,4 C 6,6 C 0,0 UV-I 0,0 C 55 % 85 % 0 % 1000,3 hPa 0,0 l/m 0,8 km/h (0 Bft) 0,00 h 0,00 h 0,7 km/h (0 Bft)
16.02.2011 23:00 14,2 C 5,1 C 0,0 UV-I 0,0 C 55 % 86 % 0 % 1000,4 hPa 0,0 l/m 0,0 km/h (0 Bft) 0,00 h 0,00 h 0,0 km/h (0 Bft)
17.02.2011 00:00 14,0 C 4,1 C 0,0 UV-I 0,0 C 55 % 88 % 0 % 1000,2 hPa 0,0 l/m 0,0 km/h (0 Bft) 0,00 h 0,00 h 0,0 km/h (0 Bft)
17.02.2011 01:00 13,8 C 3,5 C 0,0 UV-I 0,0 C 55 % 89 % 0 % 1000,2 hPa 0,0 l/m 0,0 km/h (0 Bft) 0,00 h 0,00 h 0,0 km/h (0 Bft)
17.02.2011 02:00 13,6 C 2,2 C 0,0 UV-I 0,0 C 54 % 90 % 0 % 1000,3 hPa 0,0 l/m 0,0 km/h (0 Bft) 0,00 h 0,00 h 0,0 km/h (0 Bft)
17.02.2011 03:00 13,5 C 1,6 C 0,0 UV-I 0,0 C 53 % 90 % 0 % 1000,0 hPa 0,0 l/m 0,0 km/h (0 Bft) 0,00 h 0,00 h 0,0 km/h (0 Bft)
17.02.2011 04:00 13,2 C 1,0 C 0,0 UV-I 0,0 C 53 % 91 % 0 % 1000,4 hPa 0,0 l/m 0,0 km/h (0 Bft) 0,00 h 0,00 h 0,0 km/h (0 Bft)
17.02.2011 05:00 13,1 C 0,5 C 0,0 UV-I 0,0 C 52 % 91 % 0 % 1000,9 hPa 0,0 l/m 0,0 km/h (0 Bft) 0,00 h 0,00 h 0,0 km/h (0 Bft)
17.02.2011 06:00 13,0 C 0,8 C 0,0 UV-I 0,0 C 52 % 93 % 0 % 1001,1 hPa 0,0 l/m 1,1 km/h (0 Bft) 0,00 h 0,00 h 1,3 km/h (1 Bft)
17.02.2011 07:00 12,8 C 1,3 C 0,0 UV-I 0,0 C 53 % 93 % 0 % 1001,5 hPa 0,0 l/m 2,0 km/h (1 Bft) 0,00 h 0,00 h 2,5 km/h (1 Bft)
17.02.2011 08:00 12,8 C 1,3 C 0,0 UV-I 0,0 C 53 % 94 % 0 % 1002,2 hPa 0,0 l/m 0,4 km/h (0 Bft) 0,00 h 0,00 h 0,6 km/h (0 Bft)
17.02.2011 09:00 13,1 C 2,7 C 0,0 UV-I 3,0 C 54 % 94 % 71 % 1002,5 hPa 0,1 l/m 2,8 km/h (1 Bft) 0,70 h 0,00 h 3,8 km/h (1 Bft)
17.02.2011 10:00 13,2 C 4,8 C 0,0 UV-I 6,1 C 53 % 90 % 100 % 1003,3 hPa 0,0 l/m 5,3 km/h (1 Bft) 1,00 h 0,00 h 7,6 km/h (2 Bft)
17.02.2011 11:00 13,4 C 6,8 C 0,0 UV-I 7,2 C 53 % 83 % 100 % 1003,8 hPa 0,0 l/m 4,9 km/h (1 Bft) 1,00 h 0,00 h 5,9 km/h (2 Bft)
17.02.2011 12:00 13,8 C 7,7 C 0,0 UV-I 6,8 C 53 % 76 % 100 % 1004,1 hPa 0,0 l/m 8,5 km/h (2 Bft) 1,00 h 0,00 h 9,3 km/h (2 Bft)
17.02.2011 13:00 15,0 C 8,1 C 0,0 UV-I 5,6 C 51 % 73 % 100 % 1006,3 hPa 0,0 l/m 11,1 km/h (2 Bft) 1,00 h 0,00 h 11,1 km/h (2 Bft)
17.02.2011 14:00 16,6 C 9,3 C 0,0 UV-I 5,4 C 46 % 67 % 100 % 1006,8 hPa 0,0 l/m 9,2 km/h (2 Bft) 1,00 h 0,00 h 9,8 km/h (2 Bft)
17.02.2011 15:00 17,7 C 10,0 C 0,0 UV-I 4,8 C 44 % 63 % 100 % 1007,1 hPa 0,0 l/m 6,7 km/h (2 Bft) 1,00 h 0,00 h 6,5 km/h (2 Bft)
17.02.2011 16:00 18,0 C 8,3 C 0,0 UV-I 2,0 C 43 % 68 % 55 % 1006,9 hPa 0,0 l/m 9,6 km/h (2 Bft) 0,60 h 0,00 h 10,3 km/h (2 Bft)
17.02.2011 17:00 16,9 C 5,6 C 0,0 UV-I 0,0 C 43 % 75 % 0 % 1006,6 hPa 0,0 l/m 8,3 km/h (2 Bft) 0,00 h 0,00 h 8,5 km/h (2 Bft)
17.02.2011 18:00 15,6 C 3,5 C 0,0 UV-I 0,0 C 45 % 81 % 0 % 1006,9 hPa 0,0 l/m 6,2 km/h (2 Bft) 0,00 h 0,00 h 6,8 km/h (2 Bft)
17.02.2011 19:00 14,6 C 2,6 C 0,0 UV-I 0,0 C 47 % 83 % 0 % 1007,4 hPa 0,0 l/m 7,3 km/h (2 Bft) 0,00 h 0,00 h 7,0 km/h (2 Bft)
17.02.2011 20:00 14,0 C 2,1 C 0,0 UV-I 0,0 C 48 % 84 % 0 % 1008,3 hPa 0,0 l/m 5,0 km/h (1 Bft) 0,00 h 0,00 h 5,2 km/h (1 Bft)
17.02.2011 21:00 13,7 C 2,0 C 0,0 UV-I 0,0 C 50 % 84 % 0 % 1009,0 hPa 0,0 l/m 3,4 km/h (1 Bft) 0,00 h 0,00 h 4,2 km/h (1 Bft)
17.02.2011 22:00 13,6 C 2,1 C 0,0 UV-I 0,0 C 50 % 84 % 0 % 1009,6 hPa 0,0 l/m 4,8 km/h (1 Bft) 0,00 h 0,00 h 5,2 km/h (1 Bft)
17.02.2011 23:00 13,5 C 2,2 C 0,0 UV-I 0,0 C 50 % 83 % 0 % 1010,2 hPa 0,0 l/m 3,6 km/h (1 Bft) 0,00 h 0,00 h 4,6 km/h (1 Bft)
18.02.2011 00:00 13,3 C 2,3 C 0,0 UV-I 0,0 C 50 % 83 % 0 % 1010,6 hPa 0,0 l/m 3,7 km/h (1 Bft) 0,00 h 0,00 h 5,2 km/h (1 Bft)
18.02.2011 01:00 13,4 C 2,3 C 0,0 UV-I 0,0 C 50 % 83 % 0 % 1010,9 hPa 0,0 l/m 2,5 km/h (1 Bft) 0,00 h 0,00 h 3,7 km/h (1 Bft)
18.02.2011 02:00 13,3 C 2,3 C 0,0 UV-I 0,0 C 50 % 83 % 0 % 1011,1 hPa 0,0 l/m 1,7 km/h (1 Bft) 0,00 h 0,00 h 2,5 km/h (1 Bft)
18.02.2011 03:00 13,2 C 2,1 C 0,0 UV-I 0,0 C 49 % 83 % 0 % 1011,4 hPa 0,0 l/m 0,5 km/h (0 Bft) 0,00 h 0,00 h 0,9 km/h (0 Bft)
18.02.2011 04:00 13,2 C 1,9 C 0,0 UV-I 0,0 C 49 % 83 % 0 % 1011,6 hPa 0,0 l/m 1,7 km/h (1 Bft) 0,00 h 0,00 h 2,1 km/h (1 Bft)
18.02.2011 05:00 13,1 C 1,9 C 0,0 UV-I 0,0 C 49 % 83 % 0 % 1012,1 hPa 0,0 l/m 0,8 km/h (0 Bft) 0,00 h 0,00 h 1,0 km/h (0 Bft)
18.02.2011 06:00 13,1 C 1,8 C 0,0 UV-I 0,0 C 49 % 83 % 0 % 1012,1 hPa 0,0 l/m 1,1 km/h (1 Bft) 0,00 h 0,00 h 1,0 km/h (0 Bft)
18.02.2011 07:00 13,0 C 1,7 C 0,0 UV-I 0,0 C 48 % 83 % 0 % 1012,5 hPa 0,0 l/m 0,6 km/h (0 Bft) 0,00 h 0,00 h 1,2 km/h (1 Bft)
18.02.2011 08:00 13,0 C 1,8 C 0,0 UV-I 0,0 C 49 % 83 % 0 % 1013,2 hPa 0,0 l/m 1,6 km/h (1 Bft) 0,00 h 0,00 h 2,0 km/h (1 Bft)
18.02.2011 09:00 13,0 C 2,0 C 0,0 UV-I 0,0 C 49 % 82 % 0 % 1013,8 hPa 0,0 l/m 1,3 km/h (1 Bft) 0,00 h 0,00 h 1,8 km/h (1 Bft)
18.02.2011 10:00 13,1 C 2,0 C 0,0 UV-I 0,0 C 49 % 82 % 0 % 1014,5 hPa 0,0 l/m 3,6 km/h (1 Bft) 0,00 h 0,00 h 4,9 km/h (1 Bft)
18.02.2011 11:00 13,2 C 2,3 C 0,0 UV-I 0,0 C 49 % 81 % 0 % 1015,0 hPa 0,0 l/m 5,2 km/h (1 Bft) 0,00 h 0,00 h 5,2 km/h (1 Bft)
18.02.2011 12:00 13,2 C 2,6 C 0,0 UV-I 0,1 C 49 % 81 % 3 % 1015,2 hPa 0,0 l/m 3,6 km/h (1 Bft) 0,00 h 0,00 h 3,5 km/h (1 Bft)
18.02.2011 13:00 13,2 C 3,0 C 0,0 UV-I 0,4 C 48 % 80 % 13 % 1015,3 hPa 0,0 l/m 1,5 km/h (1 Bft) 0,00 h 0,00 h 2,0 km/h (1 Bft)
18.02.2011 14:00 13,2 C 3,2 C 0,0 UV-I 0,3 C 48 % 79 % 9 % 1015,4 hPa 0,0 l/m 1,2 km/h (1 Bft) 0,00 h 0,00 h 1,8 km/h (1 Bft)
18.02.2011 15:00 13,2 C 3,2 C 0,0 UV-I 0,0 C 48 % 79 % 0 % 1015,0 hPa 0,0 l/m 2,2 km/h (1 Bft) 0,00 h 0,00 h 2,7 km/h (1 Bft)
18.02.2011 16:00 13,2 C 3,2 C 0,0 UV-I 0,0 C 48 % 79 % 0 % 1015,2 hPa 0,0 l/m 1,1 km/h (0 Bft) 0,00 h 0,00 h 1,7 km/h (1 Bft)
18.02.2011 17:00 12,9 C 3,0 C 0,0 UV-I 0,0 C 48 % 80 % 0 % 1015,4 hPa 0,0 l/m 1,6 km/h (1 Bft) 0,00 h 0,00 h 1,9 km/h (1 Bft)
18.02.2011 18:00 12,8 C 2,8 C 0,0 UV-I 0,0 C 48 % 80 % 0 % 1016,0 hPa 0,0 l/m 0,4 km/h (0 Bft) 0,00 h 0,00 h 0,7 km/h (0 Bft)
18.02.2011 19:00 12,8 C 2,9 C 0,0 UV-I 0,0 C 48 % 80 % 0 % 1016,2 hPa 0,0 l/m 0,3 km/h (0 Bft) 0,00 h 0,00 h 0,4 km/h (0 Bft)
18.02.2011 20:00 12,8 C 2,9 C 0,0 UV-I 0,0 C 48 % 81 % 0 % 1016,5 hPa 0,0 l/m 0,0 km/h (0 Bft) 0,00 h 0,00 h 0,0 km/h (0 Bft)
18.02.2011 21:00 12,8 C 2,9 C 0,0 UV-I 0,0 C 48 % 82 % 0 % 1016,3 hPa 0,0 l/m 0,3 km/h (0 Bft) 0,00 h 0,00 h 0,4 km/h (0 Bft)
18.02.2011 22:00 12,8 C 2,9 C 0,0 UV-I 0,0 C 48 % 83 % 0 % 1016,5 hPa 0,0 l/m 0,9 km/h (0 Bft) 0,00 h 0,00 h 1,7 km/h (1 Bft)
18.02.2011 23:00 12,8 C 2,8 C 0,0 UV-I 0,0 C 49 % 83 % 0 % 1016,5 hPa 0,0 l/m 1,0 km/h (0 Bft) 0,00 h 0,00 h 1,1 km/h (1 Bft)
19.02.2011 00:00 12,8 C 2,7 C 0,0 UV-I 0,0 C 49 % 86 % 0 % 1016,5 hPa 0,0 l/m 1,1 km/h (1 Bft) 0,00 h 0,00 h 1,4 km/h (1 Bft)
19.02.2011 01:00 12,8 C 2,6 C 0,0 UV-I 0,0 C 49 % 88 % 0 % 1016,4 hPa 0,0 l/m 2,5 km/h (1 Bft) 0,00 h 0,00 h 3,9 km/h (1 Bft)
19.02.2011 02:00 12,8 C 2,4 C 0,0 UV-I 0,0 C 49 % 88 % 0 % 1016,1 hPa 0,0 l/m 4,7 km/h (1 Bft) 0,00 h 0,00 h 5,7 km/h (1 Bft)
19.02.2011 03:00 12,8 C 2,4 C 0,0 UV-I 0,0 C 50 % 88 % 0 % 1016,0 hPa 0,0 l/m 1,7 km/h (1 Bft) 0,00 h 0,00 h 2,7 km/h (1 Bft)
19.02.2011 04:00 12,8 C 2,4 C 0,0 UV-I 0,0 C 50 % 88 % 0 % 1015,8 hPa 0,0 l/m 2,1 km/h (1 Bft) 0,00 h 0,00 h 2,5 km/h (1 Bft)
19.02.2011 05:00 12,8 C 2,5 C 0,0 UV-I 0,0 C 50 % 88 % 0 % 1015,8 hPa 0,0 l/m 1,2 km/h (1 Bft) 0,00 h 0,00 h 1,5 km/h (1 Bft)
19.02.2011 06:00 12,7 C 2,6 C 0,0 UV-I 0,0 C 50 % 88 % 0 % 1015,9 hPa 0,0 l/m 1,3 km/h (1 Bft) 0,00 h 0,00 h 1,7 km/h (1 Bft)
19.02.2011 07:00 12,6 C 2,8 C 0,0 UV-I 0,0 C 50 % 88 % 0 % 1016,2 hPa 0,0 l/m 2,0 km/h (1 Bft) 0,00 h 0,00 h 2,4 km/h (1 Bft)
19.02.2011 08:00 12,7 C 2,9 C 0,0 UV-I 0,0 C 50 % 88 % 0 % 1016,1 hPa 0,0 l/m 3,7 km/h (1 Bft) 0,00 h 0,00 h 4,3 km/h (1 Bft)
19.02.2011 09:00 12,8 C 3,6 C 0,0 UV-I 0,1 C 50 % 87 % 2 % 1016,3 hPa 0,0 l/m 2,9 km/h (1 Bft) 0,00 h 0,00 h 3,5 km/h (1 Bft)
19.02.2011 10:00 12,8 C 4,4 C 0,0 UV-I 0,3 C 50 % 83 % 9 % 1016,3 hPa 0,0 l/m 6,0 km/h (2 Bft) 0,00 h 0,00 h 8,3 km/h (2 Bft)
19.02.2011 11:00 13,1 C 5,0 C 0,0 UV-I 0,4 C 49 % 77 % 11 % 1016,3 hPa 0,0 l/m 9,3 km/h (2 Bft) 0,00 h 0,00 h 11,4 km/h (2 Bft)
19.02.2011 12:00 13,2 C 5,3 C 0,0 UV-I 0,4 C 48 % 73 % 12 % 1016,3 hPa 0,0 l/m 8,1 km/h (2 Bft) 0,00 h 0,00 h 9,1 km/h (2 Bft)
19.02.2011 13:00 13,3 C 5,5 C 0,0 UV-I 0,4 C 48 % 71 % 10 % 1015,9 hPa 0,0 l/m 7,8 km/h (2 Bft) 0,00 h 0,00 h 9,1 km/h (2 Bft)
19.02.2011 14:00 13,4 C 5,6 C 0,0 UV-I 0,4 C 48 % 72 % 11 % 1015,4 hPa 0,0 l/m 7,7 km/h (2 Bft) 0,00 h 0,00 h 8,9 km/h (2 Bft)
19.02.2011 15:00 13,4 C 5,6 C 0,0 UV-I 0,1 C 48 % 72 % 4 % 1015,3 hPa 0,0 l/m 6,5 km/h (2 Bft) 0,00 h 0,00 h 7,0 km/h (2 Bft)
19.02.2011 16:00 13,4 C 5,7 C 0,0 UV-I 0,0 C 48 % 71 % 0 % 1015,1 hPa 0,0 l/m 5,1 km/h (1 Bft) 0,00 h 0,00 h 6,9 km/h (2 Bft)
19.02.2011 17:00 13,4 C 5,4 C 0,0 UV-I 0,0 C 48 % 71 % 0 % 1014,8 hPa 0,0 l/m 5,2 km/h (1 Bft) 0,00 h 0,00 h 5,5 km/h (1 Bft)
19.02.2011 18:00 13,2 C 5,1 C 0,0 UV-I 0,0 C 48 % 73 % 0 % 1014,9 hPa 0,0 l/m 6,2 km/h (2 Bft) 0,00 h 0,00 h 7,8 km/h (2 Bft)
19.02.2011 19:00 13,1 C 4,9 C 0,0 UV-I 0,0 C 48 % 74 % 0 % 1015,0 hPa 0,0 l/m 7,3 km/h (2 Bft) 0,00 h 0,00 h 8,1 km/h (2 Bft)
19.02.2011 20:00 13,0 C 4,4 C 0,0 UV-I 0,0 C 49 % 77 % 0 % 1014,8 hPa 0,0 l/m 8,5 km/h (2 Bft) 0,00 h 0,00 h 9,1 km/h (2 Bft)
19.02.2011 21:00 12,9 C 3,8 C 0,0 UV-I 0,0 C 49 % 78 % 0 % 1014,7 hPa 0,0 l/m 8,9 km/h (2 Bft) 0,00 h 0,00 h 11,3 km/h (2 Bft)
19.02.2011 22:00 12,8 C 3,7 C 0,0 UV-I 0,0 C 49 % 78 % 0 % 1014,8 hPa 0,0 l/m 9,2 km/h (2 Bft) 0,00 h 0,00 h 10,7 km/h (2 Bft)
19.02.2011 23:00 12,8 C 3,6 C 0,0 UV-I 0,0 C 49 % 77 % 0 % 1014,7 hPa 0,0 l/m 8,7 km/h (2 Bft) 0,00 h 0,00 h 10,2 km/h (2 Bft)
20.02.2011 00:00 12,8 C 3,4 C 0,0 UV-I 0,0 C 48 % 77 % 0 % 1014,7 hPa 0,0 l/m 9,3 km/h (2 Bft) 0,00 h 0,00 h 10,7 km/h (2 Bft)
20.02.2011 01:00 12,8 C 3,2 C 0,0 UV-I 0,0 C 48 % 77 % 0 % 1014,8 hPa 0,0 l/m 9,4 km/h (2 Bft) 0,00 h 0,00 h 10,0 km/h (2 Bft)
20.02.2011 02:00 12,7 C 2,9 C 0,0 UV-I 0,0 C 47 % 77 % 0 % 1014,8 hPa 0,0 l/m 8,6 km/h (2 Bft) 0,00 h 0,00 h 8,6 km/h (2 Bft)
20.02.2011 03:00 12,7 C 2,6 C 0,0 UV-I 0,0 C 47 % 77 % 0 % 1014,6 hPa 0,0 l/m 9,6 km/h (2 Bft) 0,00 h 0,00 h 10,4 km/h (2 Bft)
20.02.2011 04:00 12,6 C 2,4 C 0,0 UV-I 0,0 C 47 % 76 % 0 % 1014,7 hPa 0,0 l/m 7,0 km/h (2 Bft) 0,00 h 0,00 h 8,1 km/h (2 Bft)
20.02.2011 05:00 12,6 C 2,2 C 0,0 UV-I 0,0 C 47 % 77 % 0 % 1014,8 hPa 0,0 l/m 7,3 km/h (2 Bft) 0,00 h 0,00 h 8,4 km/h (2 Bft)
20.02.2011 06:00 12,4 C 1,9 C 0,0 UV-I 0,0 C 47 % 77 % 0 % 1015,1 hPa 0,0 l/m 8,3 km/h (2 Bft) 0,00 h 0,00 h 9,5 km/h (2 Bft)
20.02.2011 07:00 12,4 C 1,3 C 0,0 UV-I 0,0 C 47 % 80 % 0 % 1015,3 hPa 0,0 l/m 4,3 km/h (1 Bft) 0,00 h 0,00 h 5,4 km/h (1 Bft)
20.02.2011 08:00 12,3 C 1,1 C 0,0 UV-I 0,0 C 46 % 81 % 0 % 1015,7 hPa 0,0 l/m 4,9 km/h (1 Bft) 0,00 h 0,00 h 6,0 km/h (2 Bft)
20.02.2011 09:00 12,4 C 1,8 C 0,0 UV-I 0,3 C 47 % 80 % 9 % 1015,3 hPa 0,0 l/m 5,6 km/h (1 Bft) 0,00 h 0,00 h 6,0 km/h (2 Bft)
20.02.2011 10:00 12,7 C 2,8 C 0,0 UV-I 0,3 C 47 % 76 % 8 % 1015,1 hPa 0,0 l/m 6,9 km/h (2 Bft) 0,00 h 0,00 h 8,3 km/h (2 Bft)
20.02.2011 11:00 12,9 C 3,6 C 0,0 UV-I 1,0 C 46 % 72 % 29 % 1014,5 hPa 0,0 l/m 7,1 km/h (2 Bft) 0,00 h 0,00 h 9,3 km/h (2 Bft)
20.02.2011 12:00 13,2 C 4,0 C 0,0 UV-I 1,3 C 46 % 71 % 38 % 1015,5 hPa 0,0 l/m 7,5 km/h (2 Bft) 0,00 h 0,00 h 7,8 km/h (2 Bft)
20.02.2011 13:00 13,4 C 4,2 C 0,0 UV-I 0,8 C 45 % 70 % 23 % 1016,3 hPa 0,0 l/m 6,1 km/h (2 Bft) 0,00 h 0,00 h 6,3 km/h (2 Bft)
20.02.2011 14:00 13,4 C 4,2 C 0,0 UV-I 0,6 C 45 % 68 % 17 % 1015,8 hPa 0,0 l/m 5,7 km/h (1 Bft) 0,00 h 0,00 h 6,6 km/h (2 Bft)
20.02.2011 15:00 13,4 C 4,2 C 0,0 UV-I 0,7 C 44 % 66 % 20 % 1015,9 hPa 0,0 l/m 6,3 km/h (2 Bft) 0,00 h 0,00 h 6,9 km/h (2 Bft)
20.02.2011 16:00 13,3 C 3,8 C 0,0 UV-I 0,1 C 44 % 67 % 3 % 1016,3 hPa 0,0 l/m 5,7 km/h (1 Bft) 0,00 h 0,00 h 6,6 km/h (2 Bft)
20.02.2011 17:00 13,1 C 3,2 C 0,0 UV-I 0,0 C 43 % 68 % 0 % 1016,3 hPa 0,0 l/m 6,4 km/h (2 Bft) 0,00 h 0,00 h 7,4 km/h (2 Bft)
20.02.2011 18:00 12,9 C 2,4 C 0,0 UV-I 0,0 C 44 % 69 % 0 % 1016,8 hPa 0,0 l/m 7,9 km/h (2 Bft) 0,00 h 0,00 h 8,2 km/h (2 Bft)
20.02.2011 19:00 12,7 C 1,8 C 0,0 UV-I 0,0 C 44 % 70 % 0 % 1017,1 hPa 0,0 l/m 6,0 km/h (2 Bft) 0,00 h 0,00 h 6,1 km/h (2 Bft)
20.02.2011 20:00 12,4 C 1,2 C 0,0 UV-I 0,0 C 43 % 71 % 0 % 1016,9 hPa 0,0 l/m 5,2 km/h (1 Bft) 0,00 h 0,00 h 6,2 km/h (2 Bft)
20.02.2011 21:00 12,3 C 1,0 C 0,0 UV-I 0,0 C 43 % 72 % 0 % 1017,3 hPa 0,0 l/m 5,2 km/h (1 Bft) 0,00 h 0,00 h 5,9 km/h (2 Bft)
20.02.2011 22:00 12,4 C 0,8 C 0,0 UV-I 0,0 C 43 % 71 % 0 % 1017,5 hPa 0,0 l/m 6,6 km/h (2 Bft) 0,00 h 0,00 h 6,4 km/h (2 Bft)
20.02.2011 23:00 12,3 C 0,7 C 0,0 UV-I 0,0 C 43 % 71 % 0 % 1017,3 hPa 0,0 l/m 4,1 km/h (1 Bft) 0,00 h 0,00 h 5,3 km/h (1 Bft)
Min-Datum _ 20.02.11 17.02.11 14.02.11 14.02.11 17.02.11 16.02.11 14.02.11 15.02.11 - 14.02.11 - - 14.02.11
_ Min-Zeit 23:28 05:28 00:00 00:00 15:58 14:38 00:00 22:46 - 16:32 - - 14:02
Minimum _ 12,1 C 0,3 C 0,0 UV-I 0,0 C 42 % 61 % 0 % 996,3 hPa - 0,0 km/h (0 Bft) - - 0,0 km/h (0 Bft)
Max-Datum _ 16.02.11 16.02.11 14.02.11 17.02.11 14.02.11 15.02.11 14.02.11 20.02.11 14.02.11 14.02.11 14.02.11 14.02.11 14.02.11
_ Max-Zeit 15:46 14:56 00:00 11:36 21:16 05:14 11:12 21:46 23:06 09:06 10:54 00:00 11:06
Maximum _ 18,3 C 13,2 C 0,0 UV-I 7,7 C 60 % 94 % 100 % 1017,6 hPa 1,2 l/m 16,1 km/h
N-NO (3 Bft)
0,03 h 0,00 h 33,2 km/h
NO (5 Bft)
Durchschnitt _ 13,7 C 4,6 C 0,0 UV-I 0,6 C 52 % 83 % 12 % 1007,8 hPa #7,4 l/m 4,8 km/h (1 Bft) #14:58 h #0 min. 5,5 km/h (1 Bft)
© 2012 W. Hausmann